createdAt,value
2023-01-05T03:59:25.501Z,1006.95
2023-01-05T04:00:25.513Z,1006.95
2023-01-05T04:01:25.599Z,1006.95
2023-01-05T04:02:25.676Z,1006.94
2023-01-05T04:03:31.238Z,1006.92
2023-01-05T04:04:25.414Z,1006.95
2023-01-05T04:05:25.418Z,1007.05
2023-01-05T04:06:25.425Z,1006.96
2023-01-05T04:07:25.396Z,1007.04
2023-01-05T04:08:25.391Z,1007.00
2023-01-05T04:09:25.386Z,1007.06
2023-01-05T04:10:25.414Z,1007.10
2023-01-05T04:11:25.379Z,1007.06
2023-01-05T04:12:25.410Z,1007.02
2023-01-05T04:13:25.356Z,1007.11
2023-01-05T04:14:25.352Z,1007.09
2023-01-05T04:15:25.364Z,1007.10
2023-01-05T04:16:25.431Z,1007.10
2023-01-05T04:17:25.339Z,1007.12
2023-01-05T04:18:25.349Z,1007.15
2023-01-05T04:19:25.340Z,1007.14
2023-01-05T04:20:25.323Z,1007.15
2023-01-05T04:21:25.336Z,1007.11
2023-01-05T04:22:27.572Z,1007.16
2023-01-05T04:23:25.337Z,1007.14
2023-01-05T04:24:25.329Z,1007.18
2023-01-05T04:25:25.295Z,1007.23
2023-01-05T04:26:25.293Z,1007.21
2023-01-05T04:27:25.297Z,1007.23
2023-01-05T04:28:25.307Z,1007.19
2023-01-05T04:29:25.290Z,1007.23
2023-01-05T04:30:25.291Z,1007.26
2023-01-05T04:31:25.360Z,1007.22
2023-01-05T04:32:25.256Z,1007.22
2023-01-05T04:33:25.279Z,1007.27
2023-01-05T04:34:25.290Z,1007.25
2023-01-05T04:35:25.257Z,1007.19
2023-01-05T04:36:25.251Z,1007.21
2023-01-05T04:37:25.239Z,1007.25
2023-01-05T04:38:25.254Z,1007.23
2023-01-05T04:39:25.251Z,1007.25
2023-01-05T04:40:25.235Z,1007.30
2023-01-05T04:41:25.218Z,1007.30
2023-01-05T04:42:25.219Z,1007.39
2023-01-05T04:43:25.271Z,1007.36
2023-01-05T04:44:25.218Z,1007.34
2023-01-05T04:45:25.205Z,1007.39
2023-01-05T04:46:25.235Z,1007.32
2023-01-05T04:47:25.215Z,1007.36
2023-01-05T04:48:25.233Z,1007.34
2023-01-05T04:49:25.190Z,1007.29
2023-01-05T04:50:25.194Z,1007.28
2023-01-05T04:51:25.194Z,1007.36
2023-01-05T04:52:25.214Z,1007.41
2023-01-05T04:53:25.177Z,1007.40
2023-01-05T04:54:25.162Z,1007.40
2023-01-05T04:55:25.165Z,1007.47
2023-01-05T04:56:25.185Z,1007.50
2023-01-05T04:57:25.176Z,1007.43
2023-01-05T04:58:25.179Z,1007.49
2023-01-05T04:59:25.142Z,1007.52
2023-01-05T05:00:25.154Z,1007.48
2023-01-05T05:01:25.240Z,1007.50
2023-01-05T05:02:25.313Z,1007.50
2023-01-05T05:03:29.604Z,1007.52
2023-01-05T05:04:25.125Z,1007.50
2023-01-05T05:05:25.116Z,1007.52
2023-01-05T05:06:25.123Z,1007.57
2023-01-05T05:07:25.129Z,1007.57
2023-01-05T05:08:25.116Z,1007.55
2023-01-05T05:09:25.118Z,1007.62
2023-01-05T05:10:25.124Z,1007.69
2023-01-05T05:11:25.096Z,1007.57
2023-01-05T05:12:25.093Z,1007.65
2023-01-05T05:13:25.090Z,1007.67
2023-01-05T05:14:25.077Z,1007.66
2023-01-05T05:15:25.107Z,1007.62
2023-01-05T05:16:25.124Z,1007.65
2023-01-05T05:17:25.071Z,1007.66
2023-01-05T05:18:25.078Z,1007.64
2023-01-05T05:19:25.087Z,1007.64
2023-01-05T05:20:25.063Z,1007.70
2023-01-05T05:21:25.045Z,1007.68
2023-01-05T05:22:25.050Z,1007.64
2023-01-05T05:23:25.053Z,1007.67
2023-01-05T05:24:25.041Z,1007.67
2023-01-05T05:25:25.028Z,1007.68
2023-01-05T05:26:25.030Z,1007.71
2023-01-05T05:27:25.021Z,1007.65
2023-01-05T05:28:25.028Z,1007.63
2023-01-05T05:29:25.025Z,1007.69
2023-01-05T05:30:25.005Z,1007.71
2023-01-05T05:31:25.041Z,1007.70
2023-01-05T05:32:25.011Z,1007.77
2023-01-05T05:33:25.003Z,1007.71
2023-01-05T05:34:25.004Z,1007.80
2023-01-05T05:35:25.001Z,1007.77
2023-01-05T05:36:25.013Z,1007.78
2023-01-05T05:37:24.975Z,1007.80
2023-01-05T05:38:24.980Z,1007.78
2023-01-05T05:39:24.970Z,1007.70
2023-01-05T05:40:24.966Z,1007.78
2023-01-05T05:41:24.963Z,1007.77
2023-01-05T05:42:24.955Z,1007.77
2023-01-05T05:43:24.967Z,1007.75
2023-01-05T05:44:24.946Z,1007.81
2023-01-05T05:45:24.949Z,1007.82
2023-01-05T05:46:24.991Z,1007.81
2023-01-05T05:47:24.932Z,1007.83
2023-01-05T05:48:24.934Z,1007.79
2023-01-05T05:49:24.932Z,1007.79
2023-01-05T05:50:24.965Z,1007.81
2023-01-05T05:51:24.957Z,1007.86
2023-01-05T05:52:24.913Z,1007.85
2023-01-05T05:53:24.912Z,1007.89
2023-01-05T05:54:24.940Z,1007.95
2023-01-05T05:55:24.901Z,1007.94
2023-01-05T05:56:24.902Z,1007.84
2023-01-05T05:57:24.911Z,1007.90
2023-01-05T05:58:24.889Z,1007.90
2023-01-05T05:59:24.904Z,1007.94
2023-01-05T06:00:24.895Z,1007.96
2023-01-05T06:01:24.937Z,1007.95
2023-01-05T06:02:24.919Z,1007.98
2023-01-05T06:03:24.953Z,1007.97
2023-01-05T06:04:24.877Z,1007.99
2023-01-05T06:05:24.864Z,1008.07
2023-01-05T06:06:24.900Z,1008.06
2023-01-05T06:07:24.862Z,1008.07
2023-01-05T06:08:24.879Z,1008.10
2023-01-05T06:09:24.853Z,1008.07
2023-01-05T06:10:24.832Z,1008.18
2023-01-05T06:11:24.857Z,1008.18
2023-01-05T06:12:24.852Z,1008.15
2023-01-05T06:13:24.851Z,1008.19
2023-01-05T06:14:24.823Z,1008.17
2023-01-05T06:15:24.805Z,1008.20
2023-01-05T06:16:24.849Z,1008.26
2023-01-05T06:17:24.825Z,1008.27
2023-01-05T06:18:24.811Z,1008.23
2023-01-05T06:19:24.802Z,1008.25
2023-01-05T06:20:24.809Z,1008.35
2023-01-05T06:21:24.804Z,1008.34
2023-01-05T06:22:24.798Z,1008.31
2023-01-05T06:23:24.809Z,1008.39
2023-01-05T06:24:24.777Z,1008.41
2023-01-05T06:25:24.793Z,1008.39
2023-01-05T06:26:24.766Z,1008.41
2023-01-05T06:27:24.769Z,1008.44
2023-01-05T06:28:24.756Z,1008.44
2023-01-05T06:29:24.761Z,1008.44
2023-01-05T06:30:24.783Z,1008.48
2023-01-05T06:31:24.758Z,1008.50
2023-01-05T06:32:24.755Z,1008.50
2023-01-05T06:33:24.754Z,1008.45
2023-01-05T06:34:24.735Z,1008.46
2023-01-05T06:35:24.774Z,1008.49
2023-01-05T06:36:24.745Z,1008.53
2023-01-05T06:37:24.743Z,1008.56
2023-01-05T06:38:24.729Z,1008.58
2023-01-05T06:39:24.719Z,1008.58
2023-01-05T06:40:24.744Z,1008.59
2023-01-05T06:41:24.700Z,1008.59
2023-01-05T06:42:24.772Z,1008.61
2023-01-05T06:43:24.698Z,1008.65
2023-01-05T06:44:24.718Z,1008.66
2023-01-05T06:45:24.789Z,1008.64
2023-01-05T06:46:24.743Z,1008.69
2023-01-05T06:47:24.692Z,1008.70
2023-01-05T06:48:24.685Z,1008.77
2023-01-05T06:49:24.667Z,1008.73
2023-01-05T06:50:24.665Z,1008.77
2023-01-05T06:51:24.671Z,1008.77
2023-01-05T06:52:24.688Z,1008.80
2023-01-05T06:53:24.673Z,1008.79
2023-01-05T06:54:24.668Z,1008.82
2023-01-05T06:55:24.691Z,1008.83
2023-01-05T06:56:24.676Z,1008.87
2023-01-05T06:57:24.639Z,1008.91
2023-01-05T06:58:24.658Z,1008.93
2023-01-05T06:59:24.633Z,1008.93
2023-01-05T07:00:24.636Z,1008.98
2023-01-05T07:01:24.810Z,1009.01
2023-01-05T07:02:24.623Z,1009.01
2023-01-05T07:03:24.634Z,1008.98
2023-01-05T07:04:24.664Z,1009.01
2023-01-05T07:05:24.823Z,1009.06
2023-01-05T07:06:24.737Z,1009.07
2023-01-05T07:07:24.602Z,1009.10
2023-01-05T07:08:24.590Z,1009.13
2023-01-05T07:09:24.598Z,1009.05
2023-01-05T07:10:24.658Z,1009.06
2023-01-05T07:11:24.644Z,1009.11
2023-01-05T07:12:24.590Z,1009.13
2023-01-05T07:13:24.578Z,1009.18
2023-01-05T07:14:24.569Z,1009.17
2023-01-05T07:15:24.625Z,1009.17
2023-01-05T07:16:24.638Z,1009.16
2023-01-05T07:17:24.545Z,1009.18
2023-01-05T07:18:24.540Z,1009.23
2023-01-05T07:19:24.556Z,1009.20
2023-01-05T07:20:24.544Z,1009.22
2023-01-05T07:21:24.563Z,1009.22
2023-01-05T07:22:24.531Z,1009.23
2023-01-05T07:23:24.539Z,1009.29
2023-01-05T07:24:24.531Z,1009.27
2023-01-05T07:25:24.554Z,1009.27
2023-01-05T07:26:24.529Z,1009.32
2023-01-05T07:27:24.582Z,1009.32
2023-01-05T07:28:24.527Z,1009.35
2023-01-05T07:29:24.514Z,1009.36
2023-01-05T07:30:24.516Z,1009.34
2023-01-05T07:31:24.527Z,1009.30
2023-01-05T07:32:24.493Z,1009.29
2023-01-05T07:33:24.490Z,1009.35
2023-01-05T07:34:24.489Z,1009.37
2023-01-05T07:35:24.497Z,1009.35
2023-01-05T07:36:24.471Z,1009.37
2023-01-05T07:37:24.502Z,1009.38
2023-01-05T07:38:24.478Z,1009.37
2023-01-05T07:39:24.455Z,1009.40
2023-01-05T07:40:24.455Z,1009.40
2023-01-05T07:41:24.447Z,1009.38
2023-01-05T07:42:24.448Z,1009.42
2023-01-05T07:43:24.453Z,1009.43
2023-01-05T07:44:24.533Z,1009.42
2023-01-05T07:45:24.494Z,1009.45
2023-01-05T07:46:24.515Z,1009.48
2023-01-05T07:47:24.515Z,1009.44
2023-01-05T07:48:24.417Z,1009.49
2023-01-05T07:49:24.423Z,1009.47
2023-01-05T07:50:24.417Z,1009.44
2023-01-05T07:51:24.416Z,1009.49
2023-01-05T07:52:24.400Z,1009.51
2023-01-05T07:53:24.395Z,1009.51
2023-01-05T07:54:24.444Z,1009.52
2023-01-05T07:55:24.388Z,1009.53
2023-01-05T07:56:24.404Z,1009.55
2023-01-05T07:57:24.378Z,1009.57
2023-01-05T07:58:24.382Z,1009.61
2023-01-05T07:59:24.384Z,1009.60
2023-01-05T08:00:24.374Z,1009.59
2023-01-05T08:01:24.537Z,1009.64
2023-01-05T08:02:24.464Z,1009.69
2023-01-05T08:03:24.363Z,1009.72
2023-01-05T08:04:24.439Z,1009.73
2023-01-05T08:05:24.346Z,1009.77
2023-01-05T08:06:24.347Z,1009.78
2023-01-05T08:07:24.368Z,1009.68
2023-01-05T08:08:24.953Z,1009.71
2023-01-05T08:09:24.340Z,1009.75
2023-01-05T08:10:24.337Z,1009.79
2023-01-05T08:11:24.324Z,1009.75
2023-01-05T08:12:24.321Z,1009.74
2023-01-05T08:13:24.369Z,1009.69
2023-01-05T08:14:24.308Z,1009.67
2023-01-05T08:15:24.327Z,1009.68
2023-01-05T08:16:24.364Z,1009.67
2023-01-05T08:17:24.331Z,1009.71
2023-01-05T08:18:24.293Z,1009.76
2023-01-05T08:19:24.304Z,1009.82
2023-01-05T08:20:24.295Z,1009.78
2023-01-05T08:21:24.288Z,1009.83
2023-01-05T08:22:24.273Z,1009.82
2023-01-05T08:23:25.604Z,1009.85
2023-01-05T08:24:24.271Z,1009.85
2023-01-05T08:25:24.315Z,1009.82
2023-01-05T08:26:24.278Z,1009.85
2023-01-05T08:27:24.315Z,1009.89
2023-01-05T08:28:28.428Z,1009.85
2023-01-05T08:29:24.249Z,1009.93
2023-01-05T08:30:24.333Z,1009.90
2023-01-05T08:31:24.339Z,1009.97
2023-01-05T08:32:24.233Z,1009.98
2023-01-05T08:33:24.245Z,1009.98
2023-01-05T08:34:25.204Z,1010.01
2023-01-05T08:35:24.230Z,1010.05
2023-01-05T08:36:24.240Z,1010.09
2023-01-05T08:37:24.218Z,1010.07
2023-01-05T08:38:24.230Z,1010.09
2023-01-05T08:39:24.324Z,1010.07
2023-01-05T08:40:24.246Z,1010.14
2023-01-05T08:41:24.192Z,1010.11
2023-01-05T08:42:24.199Z,1010.14
2023-01-05T08:43:24.243Z,1010.16
2023-01-05T08:44:24.203Z,1010.20
2023-01-05T08:45:24.207Z,1010.23
2023-01-05T08:46:24.233Z,1010.25
2023-01-05T08:47:28.141Z,1010.25
2023-01-05T08:48:24.245Z,1010.24
2023-01-05T08:49:24.250Z,1010.27
2023-01-05T08:50:24.240Z,1010.34
2023-01-05T08:51:24.171Z,1010.34
2023-01-05T08:52:24.162Z,1010.36
2023-01-05T08:53:24.164Z,1010.36
2023-01-05T08:54:24.157Z,1010.34
2023-01-05T08:55:24.168Z,1010.39
2023-01-05T08:56:24.145Z,1010.41
2023-01-05T08:57:24.136Z,1010.42
2023-01-05T08:58:24.161Z,1010.39
2023-01-05T08:59:24.126Z,1010.45
2023-01-05T09:00:24.141Z,1010.46
2023-01-05T09:01:24.232Z,1010.48
2023-01-05T09:02:26.032Z,1010.51
2023-01-05T09:03:24.187Z,1010.56
2023-01-05T09:04:24.105Z,1010.52
2023-01-05T09:05:24.108Z,1010.60
2023-01-05T09:06:24.096Z,1010.61
2023-01-05T09:07:24.092Z,1010.68
2023-01-05T09:08:24.101Z,1010.75
2023-01-05T09:09:24.157Z,1010.74
2023-01-05T09:10:24.094Z,1010.74
2023-01-05T09:11:24.153Z,1010.71
2023-01-05T09:12:27.855Z,1010.72
2023-01-05T09:13:24.073Z,1010.76
2023-01-05T09:14:24.084Z,1010.74
2023-01-05T09:15:24.129Z,1010.77
2023-01-05T09:16:49.473Z,1010.77
2023-01-05T09:17:24.148Z,1010.81
2023-01-05T09:18:24.056Z,1010.83
2023-01-05T09:19:24.068Z,1010.80
2023-01-05T09:20:24.069Z,1010.86
2023-01-05T09:21:24.069Z,1010.85
2023-01-05T09:22:24.151Z,1010.86
2023-01-05T09:23:24.048Z,1010.84
2023-01-05T09:24:24.060Z,1010.82
2023-01-05T09:25:24.041Z,1010.90
2023-01-05T09:26:24.037Z,1010.91
2023-01-05T09:27:24.036Z,1010.90
2023-01-05T09:28:24.024Z,1010.92
2023-01-05T09:29:24.018Z,1010.91
2023-01-05T09:30:23.998Z,1010.95
2023-01-05T09:31:24.086Z,1010.92
2023-01-05T09:32:24.017Z,1010.93
2023-01-05T09:33:24.022Z,1010.95
2023-01-05T09:34:24.004Z,1010.97
2023-01-05T09:35:24.125Z,1011.00
2023-01-05T09:36:23.983Z,1010.97
2023-01-05T09:37:23.987Z,1011.03
2023-01-05T09:38:24.028Z,1011.10
2023-01-05T09:39:23.975Z,1011.11
2023-01-05T09:40:23.976Z,1011.10
2023-01-05T09:41:23.955Z,1011.10
2023-01-05T09:42:23.983Z,1011.14
2023-01-05T09:43:23.959Z,1011.13
2023-01-05T09:44:23.996Z,1011.16
2023-01-05T09:45:23.968Z,1011.18
2023-01-05T09:46:24.015Z,1011.17
2023-01-05T09:47:23.945Z,1011.24
2023-01-05T09:48:23.953Z,1011.25
2023-01-05T09:49:23.959Z,1011.26
2023-01-05T09:50:23.927Z,1011.28
2023-01-05T09:51:24.075Z,1011.28
2023-01-05T09:52:23.937Z,1011.31
2023-01-05T09:53:24.000Z,1011.28
2023-01-05T09:54:23.914Z,1011.31
2023-01-05T09:55:23.913Z,1011.36
2023-01-05T09:56:58.831Z,1011.38
2023-01-05T09:57:24.377Z,1011.40
2023-01-05T09:58:29.640Z,1011.41
2023-01-05T09:59:23.891Z,1011.44
2023-01-05T10:00:23.891Z,1011.46
2023-01-05T10:01:23.913Z,1011.46
2023-01-05T10:02:23.904Z,1011.47
2023-01-05T10:13:45.876Z,1011.51
2023-01-05T10:14:45.754Z,1011.47
2023-01-05T10:15:46.456Z,1011.51
2023-01-05T10:16:45.756Z,1011.53
2023-01-05T10:17:45.726Z,1011.51
2023-01-05T10:18:45.708Z,1011.53
2023-01-05T10:19:45.729Z,1011.53
2023-01-05T10:20:45.706Z,1011.53
2023-01-05T10:21:45.699Z,1011.55
2023-01-05T10:22:45.687Z,1011.46
2023-01-05T10:23:45.681Z,1011.51
2023-01-05T10:24:45.680Z,1011.53
2023-01-05T10:25:45.691Z,1011.54
2023-01-05T10:27:23.134Z,1011.56
2023-01-05T10:27:45.688Z,1011.61
2023-01-05T10:28:45.668Z,1011.57
2023-01-05T10:29:45.782Z,1011.59
2023-01-05T10:30:45.712Z,1011.59
2023-01-05T10:31:45.670Z,1011.62
2023-01-05T10:32:50.241Z,1011.62
2023-01-05T10:33:52.517Z,1011.63
2023-01-05T10:34:45.677Z,1011.61
2023-01-05T10:36:04.112Z,1011.67
2023-01-05T10:37:45.648Z,1011.71
2023-01-05T10:38:45.648Z,1011.74
2023-01-05T10:39:48.508Z,1011.69
2023-01-05T10:40:45.624Z,1011.77
2023-01-05T10:41:45.614Z,1011.72
2023-01-05T10:42:45.635Z,1011.70
2023-01-05T10:43:45.622Z,1011.68
2023-01-05T10:44:45.635Z,1011.76
2023-01-05T10:46:11.317Z,1011.76
2023-01-05T10:46:52.009Z,1011.76
2023-01-05T10:47:45.642Z,1011.78
2023-01-05T10:48:45.588Z,1011.78
2023-01-05T10:49:45.599Z,1011.78
2023-01-05T10:50:45.582Z,1011.85
2023-01-05T10:51:47.105Z,1011.89
2023-01-05T10:52:45.571Z,1011.83
2023-01-05T10:53:45.563Z,1011.88
2023-01-05T10:54:45.583Z,1011.82
2023-01-05T10:55:45.569Z,1011.82
2023-01-05T10:56:45.562Z,1011.84
2023-01-05T10:57:45.565Z,1011.81
2023-01-05T10:58:45.545Z,1011.83
2023-01-05T10:59:45.586Z,1011.85
2023-01-05T11:00:45.556Z,1011.85
2023-01-05T11:01:45.806Z,1011.89
2023-01-05T11:02:45.571Z,1011.91
2023-01-05T11:04:26.607Z,1011.91
2023-01-05T11:04:45.535Z,1011.98
2023-01-05T11:05:45.556Z,1011.97
2023-01-05T11:06:45.520Z,1011.87
2023-01-05T11:07:45.525Z,1011.92
2023-01-05T11:08:45.531Z,1011.89
2023-01-05T11:09:45.528Z,1011.91
2023-01-05T11:10:45.505Z,1011.96
2023-01-05T11:11:45.499Z,1011.94
2023-01-05T11:12:45.499Z,1011.95
2023-01-05T11:13:45.488Z,1011.91
2023-01-05T11:14:45.496Z,1011.93
2023-01-05T11:15:45.538Z,1011.87
2023-01-05T11:16:45.529Z,1011.84
2023-01-05T11:17:45.587Z,1011.87
2023-01-05T11:18:45.475Z,1011.90
2023-01-05T11:19:45.473Z,1011.94
2023-01-05T11:20:45.467Z,1011.95
2023-01-05T11:21:45.528Z,1011.91
2023-01-05T11:22:45.479Z,1011.94
2023-01-05T11:23:45.474Z,1011.94
2023-01-05T11:24:45.460Z,1011.97
2023-01-05T11:25:45.450Z,1011.98
2023-01-05T11:26:45.446Z,1011.96
2023-01-05T11:27:49.037Z,1012.06
2023-01-05T11:28:45.456Z,1012.01
2023-01-05T11:29:45.452Z,1011.99
2023-01-05T11:30:45.465Z,1011.94
2023-01-05T11:31:45.436Z,1012.02
2023-01-05T11:32:45.437Z,1011.98
2023-01-05T11:33:45.548Z,1012.00
2023-01-05T11:34:45.425Z,1011.95
2023-01-05T11:35:45.416Z,1012.00
2023-01-05T11:36:45.426Z,1012.03
2023-01-05T11:37:45.458Z,1011.96
2023-01-05T11:38:45.411Z,1011.96
2023-01-05T11:39:45.423Z,1011.98
2023-01-05T11:40:45.449Z,1012.00
2023-01-05T11:41:45.406Z,1011.98
2023-01-05T11:42:45.389Z,1012.02
2023-01-05T11:43:45.411Z,1012.06
2023-01-05T11:44:45.383Z,1012.06
2023-01-05T11:45:45.392Z,1012.08
2023-01-05T11:46:45.422Z,1012.08
2023-01-05T11:47:45.384Z,1012.05
2023-01-05T11:48:45.372Z,1012.01
2023-01-05T11:49:45.512Z,1012.08
2023-01-05T11:50:45.385Z,1012.05
2023-01-05T11:51:45.372Z,1012.08
2023-01-05T11:52:45.369Z,1012.09
2023-01-05T11:53:45.365Z,1012.08
2023-01-05T11:54:45.351Z,1012.07
2023-01-05T11:55:45.350Z,1012.08
2023-01-05T11:56:45.355Z,1012.06
2023-01-05T11:57:45.372Z,1012.09
2023-01-05T11:58:45.355Z,1012.04
2023-01-05T11:59:45.331Z,1012.08
2023-01-05T12:00:45.385Z,1012.09
2023-01-05T12:01:45.414Z,1012.12
2023-01-05T12:02:45.386Z,1012.09
2023-01-05T12:03:45.353Z,1012.10
2023-01-05T12:04:45.331Z,1012.09
2023-01-05T12:05:45.418Z,1012.09
2023-01-05T12:06:45.325Z,1012.06
2023-01-05T12:07:45.308Z,1012.06
2023-01-05T12:08:45.367Z,1012.09
2023-01-05T12:09:45.317Z,1012.07
2023-01-05T12:10:45.466Z,1012.11
2023-01-05T12:11:45.305Z,1012.13
2023-01-05T12:12:45.302Z,1012.14
2023-01-05T12:13:45.298Z,1012.16
2023-01-05T12:14:45.284Z,1012.19
2023-01-05T12:15:45.346Z,1012.21
2023-01-05T12:16:45.356Z,1012.18
2023-01-05T12:17:45.282Z,1012.18
2023-01-05T12:18:45.284Z,1012.20
2023-01-05T12:19:45.341Z,1012.18
2023-01-05T12:20:45.281Z,1012.23
2023-01-05T12:21:45.413Z,1012.21
2023-01-05T12:22:45.286Z,1012.18
2023-01-05T12:23:45.263Z,1012.14
2023-01-05T12:24:45.269Z,1012.17
2023-01-05T12:25:45.263Z,1012.18
2023-01-05T12:26:45.255Z,1012.20
2023-01-05T12:27:45.242Z,1012.19
2023-01-05T12:28:45.545Z,1012.19
2023-01-05T12:33:44.733Z,1012.26
2023-01-05T12:34:45.225Z,1012.24
2023-01-05T12:35:45.227Z,1012.23
2023-01-05T12:36:45.217Z,1012.25
2023-01-05T12:37:45.319Z,1012.27
2023-01-05T12:38:45.254Z,1012.25
2023-01-05T12:39:45.204Z,1012.28
2023-01-05T12:40:45.219Z,1012.32
2023-01-05T12:41:45.204Z,1012.30
2023-01-05T12:42:45.202Z,1012.34
2023-01-05T12:43:45.223Z,1012.33
2023-01-05T12:44:45.228Z,1012.30
2023-01-05T12:45:45.192Z,1012.32
2023-01-05T12:46:45.296Z,1012.27
2023-01-05T12:47:45.185Z,1012.37
2023-01-05T12:48:45.194Z,1012.38
2023-01-05T12:49:45.177Z,1012.36
2023-01-05T12:50:45.222Z,1012.40
2023-01-05T12:51:45.172Z,1012.42
2023-01-05T12:52:45.172Z,1012.42
2023-01-05T12:53:45.317Z,1012.41
2023-01-05T12:54:45.184Z,1012.39
2023-01-05T12:55:45.156Z,1012.40
2023-01-05T12:56:45.163Z,1012.41
2023-01-05T12:57:45.206Z,1012.45
2023-01-05T12:58:49.246Z,1012.45
2023-01-05T12:59:45.162Z,1012.47
2023-01-05T13:00:45.253Z,1012.49
2023-01-05T13:01:45.419Z,1012.50
2023-01-05T13:02:45.211Z,1012.50
2023-01-05T13:03:45.150Z,1012.52
2023-01-05T13:04:48.587Z,1012.54
2023-01-05T13:05:46.559Z,1012.49
2023-01-05T13:06:45.134Z,1012.53
2023-01-05T13:07:45.137Z,1012.50
2023-01-05T13:08:45.150Z,1012.47
2023-01-05T13:09:45.251Z,1012.39
2023-01-05T13:10:45.109Z,1012.49
2023-01-05T13:11:45.107Z,1012.53
2023-01-05T13:12:45.117Z,1012.56
2023-01-05T13:13:45.110Z,1012.53
2023-01-05T13:14:45.096Z,1012.51
2023-01-05T13:15:45.190Z,1012.58
2023-01-05T13:16:45.134Z,1012.59
2023-01-05T13:17:45.085Z,1012.64
2023-01-05T13:18:45.137Z,1012.63
2023-01-05T13:19:45.088Z,1012.66
2023-01-05T13:20:45.093Z,1012.56
2023-01-05T13:21:45.069Z,1012.59
2023-01-05T13:22:45.078Z,1012.66
2023-01-05T13:23:45.087Z,1012.66
2023-01-05T13:24:45.088Z,1012.68
2023-01-05T13:25:45.235Z,1012.70
2023-01-05T13:26:45.053Z,1012.72
2023-01-05T13:27:45.065Z,1012.74
2023-01-05T13:28:45.055Z,1012.74
2023-01-05T13:29:45.074Z,1012.78
2023-01-05T13:30:45.060Z,1012.75
2023-01-05T13:31:45.068Z,1012.80
2023-01-05T13:32:45.064Z,1012.75
2023-01-05T13:33:45.053Z,1012.78
2023-01-05T13:34:45.044Z,1012.80
2023-01-05T13:35:45.048Z,1012.83
2023-01-05T13:36:45.033Z,1012.82
2023-01-05T13:37:45.067Z,1012.88
2023-01-05T13:38:45.041Z,1012.89
2023-01-05T13:39:45.026Z,1012.93
2023-01-05T13:40:45.045Z,1012.92
2023-01-05T13:41:45.107Z,1012.93
2023-01-05T13:42:45.009Z,1012.91
2023-01-05T13:43:45.010Z,1012.94
2023-01-05T13:44:45.029Z,1012.95
2023-01-05T13:45:44.994Z,1012.94
2023-01-05T13:46:45.046Z,1012.98
2023-01-05T13:47:46.002Z,1012.93
2023-01-05T13:48:57.640Z,1012.96
2023-01-05T13:49:45.002Z,1012.97
2023-01-05T13:50:44.992Z,1012.98
2023-01-05T13:51:45.041Z,1013.02
2023-01-05T13:52:44.974Z,1013.02
2023-01-05T13:53:44.979Z,1013.01
2023-01-05T13:54:59.842Z,1012.99
2023-01-05T13:55:44.947Z,1013.01
2023-01-05T13:56:44.994Z,1013.03
2023-01-05T13:57:45.094Z,1013.04
2023-01-05T13:58:44.967Z,1013.04
2023-01-05T13:59:55.747Z,1013.03
2023-01-05T14:00:44.986Z,1012.99
2023-01-05T14:01:45.076Z,1013.00
2023-01-05T14:02:44.982Z,1012.96
2023-01-05T14:03:44.939Z,1013.01
2023-01-05T14:04:44.931Z,1013.02
2023-01-05T14:05:44.918Z,1013.04
2023-01-05T14:06:44.949Z,1013.02
2023-01-05T14:07:44.934Z,1013.03
2023-01-05T14:08:44.925Z,1013.01
2023-01-05T14:09:44.908Z,1013.03
2023-01-05T14:10:44.905Z,1013.05
2023-01-05T14:11:44.922Z,1013.08
2023-01-05T14:12:44.933Z,1013.08
2023-01-05T14:13:45.008Z,1013.08
2023-01-05T14:14:44.901Z,1013.06
2023-01-05T14:15:44.900Z,1013.05
2023-01-05T14:16:44.885Z,1013.05
2023-01-05T14:17:44.918Z,1013.05
2023-01-05T14:18:44.872Z,1013.04
2023-01-05T14:19:44.868Z,1013.04
2023-01-05T14:20:44.951Z,1013.06
2023-01-05T14:21:44.881Z,1013.08
2023-01-05T14:22:44.886Z,1013.06
2023-01-05T14:23:44.874Z,1013.13
2023-01-05T14:24:44.913Z,1013.17
2023-01-05T14:25:44.855Z,1013.16
2023-01-05T14:26:44.843Z,1013.16
2023-01-05T14:27:44.864Z,1013.21
2023-01-05T14:28:44.834Z,1013.20
2023-01-05T14:29:44.947Z,1013.24
2023-01-05T14:30:44.844Z,1013.26
2023-01-05T14:31:44.866Z,1013.25
2023-01-05T14:32:44.876Z,1013.18
2023-01-05T14:33:44.846Z,1013.21
2023-01-05T14:34:44.811Z,1013.23
2023-01-05T14:35:44.817Z,1013.21
2023-01-05T14:36:44.836Z,1013.22
2023-01-05T14:37:44.825Z,1013.27
2023-01-05T14:38:44.821Z,1013.26
2023-01-05T14:39:44.824Z,1013.27
2023-01-05T14:40:44.791Z,1013.29
2023-01-05T14:41:44.787Z,1013.31
2023-01-05T14:42:44.814Z,1013.36
2023-01-05T14:43:44.799Z,1013.36
2023-01-05T14:44:44.805Z,1013.38
2023-01-05T14:45:44.942Z,1013.39
2023-01-05T14:46:44.771Z,1013.42
2023-01-05T14:47:44.826Z,1013.47
2023-01-05T14:48:44.776Z,1013.46
2023-01-05T14:49:44.781Z,1013.50
2023-01-05T14:50:44.770Z,1013.44
2023-01-05T14:51:44.796Z,1013.43
2023-01-05T14:52:44.787Z,1013.39
2023-01-05T14:53:44.774Z,1013.38
2023-01-05T14:54:44.816Z,1013.45
2023-01-05T14:55:44.763Z,1013.44
2023-01-05T14:56:44.735Z,1013.44
2023-01-05T14:57:44.749Z,1013.50
2023-01-05T14:58:44.747Z,1013.51
2023-01-05T14:59:44.729Z,1013.52
2023-01-05T15:01:44.889Z,1013.48
2023-01-05T15:02:44.739Z,1013.47
2023-01-05T15:03:44.711Z,1013.48
2023-01-05T15:04:44.769Z,1013.47
2023-01-05T15:05:44.714Z,1013.52
2023-01-05T15:06:44.690Z,1013.51
2023-01-05T15:07:44.846Z,1013.49
2023-01-05T15:08:44.719Z,1013.52
2023-01-05T15:09:44.700Z,1013.51
2023-01-05T15:10:44.690Z,1013.57
2023-01-05T15:11:44.674Z,1013.59
2023-01-05T15:12:44.684Z,1013.54
2023-01-05T15:13:44.699Z,1013.55
2023-01-05T15:14:44.662Z,1013.53
2023-01-05T15:15:44.685Z,1013.52
2023-01-05T15:16:45.719Z,1013.53
2023-01-05T15:17:44.749Z,1013.54
2023-01-05T15:18:44.649Z,1013.52
2023-01-05T15:19:44.676Z,1013.54
2023-01-05T15:20:44.651Z,1013.51
2023-01-05T15:21:44.651Z,1013.55
2023-01-05T15:22:44.633Z,1013.55
2023-01-05T15:23:44.655Z,1013.52
2023-01-05T15:24:44.620Z,1013.56
2023-01-05T15:25:52.985Z,1013.54
2023-01-05T15:26:44.635Z,1013.55
2023-01-05T15:27:44.619Z,1013.53
2023-01-05T15:28:44.623Z,1013.53
2023-01-05T15:29:46.527Z,1013.47
2023-01-05T15:30:44.613Z,1013.48
2023-01-05T15:31:47.579Z,1013.48
2023-01-05T15:32:44.594Z,1013.50
2023-01-05T15:33:44.707Z,1013.49
2023-01-05T15:34:44.581Z,1013.50
2023-01-05T15:35:44.584Z,1013.47
2023-01-05T15:36:44.576Z,1013.47
2023-01-05T15:37:44.591Z,1013.47
2023-01-05T15:38:44.577Z,1013.49
2023-01-05T15:39:44.681Z,1013.47
2023-01-05T15:40:44.631Z,1013.50
2023-01-05T15:41:44.582Z,1013.52
2023-01-05T15:42:44.555Z,1013.49
2023-01-05T15:43:44.547Z,1013.48
2023-01-05T15:44:44.543Z,1013.49
2023-01-05T15:45:44.562Z,1013.51
2023-01-05T15:46:44.548Z,1013.47
2023-01-05T15:47:44.563Z,1013.53
2023-01-05T15:48:44.559Z,1013.58
2023-01-05T15:49:44.644Z,1013.60
2023-01-05T15:50:44.521Z,1013.62
2023-01-05T15:51:44.512Z,1013.57
2023-01-05T15:52:44.524Z,1013.53
2023-01-05T15:53:44.534Z,1013.54
2023-01-05T15:54:44.513Z,1013.58
2023-01-05T15:55:44.512Z,1013.60
2023-01-05T15:56:44.513Z,1013.61
2023-01-05T15:57:44.735Z,1013.62
2023-01-05T15:58:44.499Z,1013.60
2023-01-05T15:59:44.483Z,1013.61
2023-01-05T16:00:44.567Z,1013.64
2023-01-05T16:12:58.511Z,1013.60
2023-01-05T16:13:58.363Z,1013.63
2023-01-05T16:14:58.369Z,1013.64
2023-01-05T16:15:58.383Z,1013.67
2023-01-05T16:16:58.404Z,1013.61
2023-01-05T16:17:58.355Z,1013.65
2023-01-05T16:18:58.345Z,1013.64
2023-01-05T16:19:58.419Z,1013.68
2023-01-05T16:20:58.332Z,1013.66
2023-01-05T16:21:58.331Z,1013.69
2023-01-05T16:23:04.611Z,1013.70
2023-01-05T16:23:58.311Z,1013.73
2023-01-05T16:24:58.305Z,1013.74
2023-01-05T16:25:58.321Z,1013.72
2023-01-05T16:26:58.303Z,1013.75
2023-01-05T16:27:58.514Z,1013.70
2023-01-05T16:28:58.405Z,1013.67
2023-01-05T16:29:58.285Z,1013.69
2023-01-05T16:30:58.297Z,1013.68
2023-01-05T16:31:58.271Z,1013.71